Time,TemperatureF,DewpointF,PressureIn,WindDirection,WindDirectionDegrees,WindSpeedMPH,WindSpeedGustMPH,Humidity,HourlyPrecipIn,Conditions,Clouds,dailyrainin,SolarRadiationWatts/m^2,SoftwareType,DateUTC
2013-03-29 00:00:00,62.9,55.2,30.09,SE,137,8.2,11.5,76,0.00,OVC,,0.00,0.0,WeatherDisplay:10.37,2013-03-29 05:00:00,
2013-03-29 00:05:00,62.7,55.4,30.09,SE,135,6.3,11.5,77,0.00,OVC,,0.00,0.0,WeatherDisplay:10.37,2013-03-29 05:05:00,
2013-03-29 00:10:00,62.7,55.4,30.09,SE,142,6.7,10.4,77,0.00,OVC,,0.00,0.0,WeatherDisplay:10.37,2013-03-29 05:10:00,
2013-03-29 00:15:00,62.6,55.3,30.08,SSE,151,7.7,11.5,77,0.00,OVC,,0.00,0.0,WeatherDisplay:10.37,2013-03-29 05:15:00,
2013-03-29 00:20:00,62.7,55.4,30.08,SE,138,7.9,12.7,77,0.00,OVC,,0.00,0.0,WeatherDisplay:10.37,2013-03-29 05:20:00,
2013-03-29 00:25:00,62.7,55.4,30.08,SE,139,6.4,11.5,77,0.00,OVC,,0.00,0.0,WeatherDisplay:10.37,2013-03-29 05:25:00,
2013-03-29 00:30:00,62.4,55.1,30.08,SSE,147,7.7,15.0,77,0.00,OVC,,0.00,0.0,WeatherDisplay:10.37,2013-03-29 05:30:00,
2013-03-29 00:35:00,62.1,55.2,30.08,SE,133,6.7,11.5,78,0.00,OVC,,0.00,0.0,WeatherDisplay:10.37,2013-03-29 05:35:00,
2013-03-29 00:40:00,61.9,55.0,30.08,SSE,166,10.5,12.7,78,0.00,OVC,,0.00,0.0,WeatherDisplay:10.37,2013-03-29 05:40:00,
2013-03-29 00:45:00,61.7,55.1,30.08,SE,143,7.7,8.1,79,0.00,SCT,,0.00,0.0,WeatherDisplay:10.37,2013-03-29 05:45:00,
2013-03-29 00:50:00,61.7,55.1,30.07,SE,142,6.9,12.7,79,0.00,SCT,,0.00,0.0,WeatherDisplay:10.37,2013-03-29 05:50:00,
2013-03-29 00:55:00,61.5,54.9,30.07,SSE,157,9.0,11.0,79,0.00,SCT,,0.00,0.0,WeatherDisplay:10.37,2013-03-29 05:55:00,
2013-03-29 01:00:00,61.5,54.9,30.07,SE,143,7.1,11.5,79,0.00,SCT,,0.00,0.0,WeatherDisplay:10.37,2013-03-29 06:00:00,
2013-03-29 01:05:00,61.5,55.3,30.07,SE,124,5.5,11.5,80,0.00,SCT,,0.00,0.0,WeatherDisplay:10.37,2013-03-29 06:05:00,
2013-03-29 01:10:00,61.3,55.1,30.08,SSE,151,8.3,11.5,80,0.00,SCT,,0.00,0.0,WeatherDisplay:10.37,2013-03-29 06:10:00,
2013-03-29 01:15:00,61.2,55.0,30.08,SE,135,7.8,12.7,80,0.00,CLR,,0.00,0.0,WeatherDisplay:10.37,2013-03-29 06:15:00,
2013-03-29 01:20:00,61.1,54.9,30.08,SE,146,6.4,9.2,80,0.00,CLR,,0.00,0.0,WeatherDisplay:10.37,2013-03-29 06:20:00,
2013-03-29 01:25:00,61.0,54.8,30.08,SE,142,6.9,11.5,80,0.00,CLR,,0.00,0.0,WeatherDisplay:10.37,2013-03-29 06:25:00,
2013-03-29 01:30:00,60.8,54.9,30.08,SE,140,7.1,11.5,81,0.00,CLR,,0.00,0.0,WeatherDisplay:10.37,2013-03-29 06:30:00,
2013-03-29 01:35:00,60.7,54.8,30.08,SE,139,6.5,11.0,81,0.00,CLR,,0.00,0.0,WeatherDisplay:10.37,2013-03-29 06:35:00,
2013-03-29 01:40:00,60.6,54.7,30.08,SE,130,5.2,8.1,81,0.00,CLR,,0.00,0.0,WeatherDisplay:10.37,2013-03-29 06:40:00,
2013-03-29 01:45:00,60.4,54.9,30.08,SE,141,7.9,10.4,82,0.00,CLR,,0.00,0.0,WeatherDisplay:10.37,2013-03-29 06:45:00,
2013-03-29 01:50:00,60.2,54.7,30.08,SE,132,7.2,9.2,82,0.00,CLR,,0.00,0.0,WeatherDisplay:10.37,2013-03-29 06:50:00,
2013-03-29 01:55:00,60.1,54.9,30.08,SE,131,5.5,8.1,83,0.00,CLR,,0.00,0.0,WeatherDisplay:10.37,2013-03-29 06:55:00,
2013-03-29 02:00:00,59.8,54.6,30.08,SE,134,6.7,9.2,83,0.00,CLR,,0.00,0.0,WeatherDisplay:10.37,2013-03-29 07:00:00,
2013-03-29 02:05:00,59.7,54.5,30.08,SE,137,4.9,9.2,83,0.00,CLR,,0.00,0.0,WeatherDisplay:10.37,2013-03-29 07:05:00,
2013-03-29 02:10:00,59.6,54.4,30.08,SE,138,6.5,9.2,83,0.00,CLR,,0.00,0.0,WeatherDisplay:10.37,2013-03-29 07:10:00,
2013-03-29 02:15:00,59.6,54.8,30.08,SE,137,4.9,6.9,84,0.00,CLR,,0.00,0.0,WeatherDisplay:10.37,2013-03-29 07:15:00,
2013-03-29 02:20:00,59.5,54.7,30.08,SE,137,5.0,6.9,84,0.00,CLR,,0.00,0.0,WeatherDisplay:10.37,2013-03-29 07:20:00,
2013-03-29 02:25:00,59.4,54.6,30.08,SE,137,4.6,6.0,84,0.00,CLR,,0.00,0.0,WeatherDisplay:10.37,2013-03-29 07:25:00,
2013-03-29 02:30:00,59.5,54.7,30.08,SE,137,4.5,6.9,84,0.00,BKN,,0.00,0.0,WeatherDisplay:10.37,2013-03-29 07:30:00,
2013-03-29 02:35:00,59.4,54.9,30.08,SE,137,5.7,8.1,85,0.00,BKN,,0.00,0.0,WeatherDisplay:10.37,2013-03-29 07:35:00,
2013-03-29 02:40:00,59.6,55.1,30.08,SE,129,5.4,8.1,85,0.00,BKN,,0.00,0.0,WeatherDisplay:10.37,2013-03-29 07:40:00,
2013-03-29 02:45:00,59.7,54.9,30.08,SE,131,4.4,5.8,84,0.00,OVC,,0.00,0.0,WeatherDisplay:10.37,2013-03-29 07:45:00,
2013-03-29 02:50:00,59.8,55.0,30.08,SE,135,5.7,11.5,84,0.00,OVC,,0.00,0.0,WeatherDisplay:10.37,2013-03-29 07:50:00,
2013-03-29 02:55:00,59.9,55.1,30.08,SE,145,5.7,9.2,84,0.00,OVC,,0.00,0.0,WeatherDisplay:10.37,2013-03-29 07:55:00,
2013-03-29 03:00:00,59.8,55.0,30.08,SE,137,5.6,8.1,84,0.00,OVC,,0.00,0.0,WeatherDisplay:10.37,2013-03-29 08:00:00,
2013-03-29 03:05:00,59.8,55.3,30.08,SE,139,6.2,8.1,85,0.00,OVC,,0.00,0.0,WeatherDisplay:10.37,2013-03-29 08:05:00,
2013-03-29 03:10:00,59.9,55.4,30.08,SE,139,5.7,9.0,85,0.00,OVC,,0.00,0.0,WeatherDisplay:10.37,2013-03-29 08:10:00,
2013-03-29 03:15:00,59.9,55.4,30.08,SE,139,6.9,8.1,85,0.00,OVC,,0.00,0.0,WeatherDisplay:10.37,2013-03-29 08:15:00,
2013-03-29 03:20:00,59.9,55.4,30.08,SE,138,6.1,8.1,85,0.00,OVC,,0.00,0.0,WeatherDisplay:10.37,2013-03-29 08:20:00,
2013-03-29 03:25:00,60.0,55.5,30.08,SE,131,7.0,10.4,85,0.00,OVC,,0.00,0.0,WeatherDisplay:10.37,2013-03-29 08:25:00,
2013-03-29 03:30:00,60.3,55.8,30.08,SSE,157,7.0,10.0,85,0.00,OVC,,0.00,0.0,WeatherDisplay:10.37,2013-03-29 08:30:00,
2013-03-29 03:35:00,60.5,55.6,30.08,SSE,154,7.4,10.4,84,0.00,OVC,,0.00,0.0,WeatherDisplay:10.37,2013-03-29 08:35:00,
2013-03-29 03:40:00,60.6,55.7,30.08,SSE,162,6.0,7.0,84,0.00,OVC,,0.00,0.0,WeatherDisplay:10.37,2013-03-29 08:40:00,
2013-03-29 03:45:00,60.6,55.7,30.08,South,169,7.9,10.4,84,0.00,OVC,,0.00,0.0,WeatherDisplay:10.37,2013-03-29 08:45:00,
2013-03-29 03:50:00,60.7,55.8,30.08,SSE,155,7.6,10.4,84,0.00,OVC,,0.00,0.0,WeatherDisplay:10.37,2013-03-29 08:50:00,
2013-03-29 03:55:00,60.6,55.7,30.08,SSE,154,5.8,8.1,84,0.00,OVC,,0.00,0.0,WeatherDisplay:10.37,2013-03-29 08:55:00,
2013-03-29 04:00:00,60.6,55.7,30.08,SSE,158,7.7,11.5,84,0.00,OVC,,0.00,0.0,WeatherDisplay:10.37,2013-03-29 09:00:00,
2013-03-29 04:05:00,60.6,55.7,30.07,SSE,159,6.9,9.2,84,0.00,OVC,,0.00,0.0,WeatherDisplay:10.37,2013-03-29 09:05:00,
2013-03-29 04:10:00,60.5,56.0,30.07,SSE,154,6.7,9.2,85,0.00,OVC,,0.00,0.0,WeatherDisplay:10.37,2013-03-29 09:10:00,
2013-03-29 04:15:00,60.4,55.9,30.07,SSE,161,6.3,10.0,85,0.00,OVC,,0.00,0.0,WeatherDisplay:10.37,2013-03-29 09:15:00,
2013-03-29 04:20:00,60.4,55.9,30.07,SSE,162,7.1,10.0,85,0.00,OVC,,0.00,0.0,WeatherDisplay:10.37,2013-03-29 09:20:00,
2013-03-29 04:25:00,60.4,55.9,30.07,SSE,165,9.0,12.7,85,0.00,OVC,,0.00,0.0,WeatherDisplay:10.37,2013-03-29 09:25:00,
2013-03-29 04:30:00,60.4,55.9,30.07,SSE,154,6.9,12.0,85,0.00,OVC,,0.00,0.0,WeatherDisplay:10.37,2013-03-29 09:30:00,
2013-03-29 04:35:00,60.1,55.6,30.07,SSE,166,8.8,11.5,85,0.00,OVC,,0.00,0.0,WeatherDisplay:10.37,2013-03-29 09:35:00,
2013-03-29 04:40:00,59.9,55.7,30.07,South,170,8.3,10.4,86,0.00,OVC,,0.00,0.0,WeatherDisplay:10.37,2013-03-29 09:40:00,
2013-03-29 04:45:00,60.0,55.8,30.07,SSE,166,8.6,11.5,86,0.00,OVC,,0.00,0.0,WeatherDisplay:10.37,2013-03-29 09:45:00,
2013-03-29 04:50:00,60.0,55.8,30.07,SSE,166,7.6,10.4,86,0.00,OVC,,0.00,0.0,WeatherDisplay:10.37,2013-03-29 09:50:00,
2013-03-29 04:55:00,60.0,55.8,30.07,SSE,159,8.7,11.5,86,0.00,OVC,,0.00,0.0,WeatherDisplay:10.37,2013-03-29 09:55:00,
2013-03-29 05:00:00,60.0,55.8,30.07,SSE,156,6.8,8.1,86,0.00,OVC,,0.00,0.0,WeatherDisplay:10.37,2013-03-29 10:00:00,
2013-03-29 05:05:00,60.0,55.8,30.07,SSE,161,8.2,11.5,86,0.00,OVC,,0.00,0.0,WeatherDisplay:10.37,2013-03-29 10:05:00,
2013-03-29 05:10:00,60.0,55.8,30.07,SSE,155,7.0,9.2,86,0.00,OVC,,0.00,0.0,WeatherDisplay:10.37,2013-03-29 10:10:00,
2013-03-29 05:15:00,60.0,55.8,30.07,SSE,159,5.7,6.0,86,0.00,OVC,,0.00,0.0,WeatherDisplay:10.37,2013-03-29 10:15:00,
2013-03-29 05:20:00,59.6,55.7,30.07,SSE,159,5.6,11.5,87,0.00,OVC,,0.00,0.0,WeatherDisplay:10.37,2013-03-29 10:20:00,
2013-03-29 05:25:00,59.5,55.6,30.07,South,169,8.3,11.5,87,0.00,OVC,,0.00,0.0,WeatherDisplay:10.37,2013-03-29 10:25:00,
2013-03-29 05:30:00,59.5,55.6,30.07,SSE,164,7.3,9.2,87,0.00,OVC,,0.00,0.0,WeatherDisplay:10.37,2013-03-29 10:30:00,
2013-03-29 05:35:00,59.3,55.7,30.07,SSE,160,7.9,9.2,88,0.00,OVC,,0.00,0.0,WeatherDisplay:10.37,2013-03-29 10:35:00,
2013-03-29 05:40:00,59.0,55.4,30.07,SSE,162,8.5,10.4,88,0.00,OVC,,0.00,0.0,WeatherDisplay:10.37,2013-03-29 10:40:00,
2013-03-29 05:45:00,58.9,55.7,30.07,SSE,157,6.0,10.4,89,0.00,BKN,,0.00,0.0,WeatherDisplay:10.37,2013-03-29 10:45:00,
2013-03-29 05:50:00,58.8,55.6,30.07,SSE,165,7.6,10.4,89,0.00,BKN,,0.00,0.0,WeatherDisplay:10.37,2013-03-29 10:50:00,
2013-03-29 05:55:00,58.7,55.5,30.07,SSE,164,7.3,10.4,89,0.00,BKN,,0.00,0.0,WeatherDisplay:10.37,2013-03-29 10:55:00,
2013-03-29 06:00:00,58.6,55.4,30.07,SSE,155,5.9,9.2,89,0.00,BKN,,0.00,0.0,WeatherDisplay:10.37,2013-03-29 11:00:00,
2013-03-29 06:05:00,58.6,55.4,30.07,SSE,164,6.1,9.0,89,0.00,BKN,,0.00,0.0,WeatherDisplay:10.37,2013-03-29 11:05:00,
2013-03-29 06:10:00,58.7,55.5,30.08,SSE,164,8.0,8.1,89,0.00,BKN,,0.00,0.0,WeatherDisplay:10.37,2013-03-29 11:10:00,
2013-03-29 06:15:00,58.4,55.2,30.08,SSE,158,7.1,9.2,89,0.00,CLR,,0.00,0.0,WeatherDisplay:10.37,2013-03-29 11:15:00,
2013-03-29 06:20:00,58.5,55.6,30.08,SSE,164,8.1,10.4,90,0.00,CLR,,0.00,0.0,WeatherDisplay:10.37,2013-03-29 11:20:00,
2013-03-29 06:25:00,58.4,55.2,30.08,SSE,164,5.8,8.1,89,0.00,CLR,,0.00,0.0,WeatherDisplay:10.37,2013-03-29 11:25:00,
2013-03-29 06:30:00,58.2,55.3,30.08,SSE,153,6.0,12.7,90,0.00,SCT,,0.00,0.0,WeatherDisplay:10.37,2013-03-29 11:30:00,
2013-03-29 06:35:00,58.3,55.4,30.08,South,189,5.5,8.1,90,0.00,SCT,,0.00,0.0,WeatherDisplay:10.37,2013-03-29 11:35:00,
2013-03-29 06:40:00,58.1,55.2,30.08,SSE,168,5.5,8.1,90,0.00,SCT,,0.00,0.0,WeatherDisplay:10.37,2013-03-29 11:40:00,
2013-03-29 06:45:00,57.9,55.0,30.09,SSE,167,6.9,10.4,90,0.00,SCT,,0.00,0.0,WeatherDisplay:10.37,2013-03-29 11:45:00,
2013-03-29 06:50:00,58.0,55.4,30.09,SSE,163,8.7,12.7,91,0.00,SCT,,0.00,0.0,WeatherDisplay:10.37,2013-03-29 11:50:00,
2013-03-29 06:55:00,58.4,55.5,30.09,SSE,166,8.4,11.0,90,0.00,SCT,,0.00,0.0,WeatherDisplay:10.37,2013-03-29 11:55:00,
2013-03-29 07:00:00,58.2,55.3,30.09,South,182,8.9,11.5,90,0.00,SCT,,0.00,0.0,WeatherDisplay:10.37,2013-03-29 12:00:00,
2013-03-29 07:05:00,58.2,55.3,30.09,South,174,8.3,12.7,90,0.00,SCT,,0.00,0.0,WeatherDisplay:10.37,2013-03-29 12:05:00,
2013-03-29 07:10:00,58.5,55.6,30.09,South,181,9.1,11.5,90,0.00,SCT,,0.00,0.0,WeatherDisplay:10.37,2013-03-29 12:10:00,
2013-03-29 07:15:00,58.7,55.8,30.10,South,183,10.4,12.7,90,0.00,BKN,,0.00,0.0,WeatherDisplay:10.37,2013-03-29 12:15:00,
2013-03-29 07:20:00,58.9,55.7,30.10,South,175,7.8,11.5,89,0.00,BKN,,0.00,0.0,WeatherDisplay:10.37,2013-03-29 12:20:00,
2013-03-29 07:25:00,59.0,55.8,30.10,South,175,8.2,11.0,89,0.00,BKN,,0.00,0.0,WeatherDisplay:10.37,2013-03-29 12:25:00,
2013-03-29 07:30:00,59.1,55.9,30.10,SSE,163,8.3,9.2,89,0.00,OVC,,0.00,5.5,WeatherDisplay:10.37,2013-03-29 12:30:00,
2013-03-29 07:35:00,59.1,55.9,30.10,SSE,164,6.7,10.0,89,0.00,OVC,,0.00,9.9,WeatherDisplay:10.37,2013-03-29 12:35:00,
2013-03-29 07:40:00,59.2,56.0,30.11,South,174,7.9,11.5,89,0.00,OVC,,0.00,12.1,WeatherDisplay:10.37,2013-03-29 12:40:00,
2013-03-29 07:45:00,59.3,55.7,30.11,South,185,9.0,11.5,88,0.00,OVC,,0.00,13.2,WeatherDisplay:10.37,2013-03-29 12:45:00,
2013-03-29 07:50:00,59.4,56.2,30.11,SSE,164,8.9,11.5,89,0.00,OVC,,0.00,15.4,WeatherDisplay:10.37,2013-03-29 12:50:00,
2013-03-29 07:55:00,59.4,56.2,30.11,South,170,7.9,9.2,89,0.00,OVC,,0.00,19.8,WeatherDisplay:10.37,2013-03-29 12:55:00,
2013-03-29 08:00:00,59.4,55.8,30.11,SSE,164,7.9,11.0,88,0.00,OVC,,0.00,23.1,WeatherDisplay:10.37,2013-03-29 13:00:00,
2013-03-29 08:05:00,59.5,55.9,30.11,South,174,8.1,11.0,88,0.00,OVC,,0.00,30.8,WeatherDisplay:10.37,2013-03-29 13:05:00,
2013-03-29 08:10:00,59.5,55.9,30.11,South,182,9.6,11.5,88,0.00,OVC,,0.00,40.7,WeatherDisplay:10.37,2013-03-29 13:10:00,
2013-03-29 08:15:00,59.6,56.0,30.11,South,172,8.3,12.0,88,0.00,OVC,,0.00,46.2,WeatherDisplay:10.37,2013-03-29 13:15:00,
2013-03-29 08:20:00,59.7,56.1,30.11,South,172,8.4,10.4,88,0.00,OVC,,0.00,56.1,WeatherDisplay:10.37,2013-03-29 13:20:00,
2013-03-29 08:25:00,59.8,56.2,30.12,South,171,6.3,10.4,88,0.00,OVC,,0.00,53.9,WeatherDisplay:10.37,2013-03-29 13:25:00,
2013-03-29 08:30:00,59.8,55.9,30.11,SSE,161,8.0,11.5,87,0.00,OVC,,0.00,48.4,WeatherDisplay:10.37,2013-03-29 13:30:00,
2013-03-29 08:35:00,59.9,56.3,30.12,South,171,9.4,11.5,88,0.00,OVC,,0.00,58.3,WeatherDisplay:10.37,2013-03-29 13:35:00,
2013-03-29 08:40:00,60.0,56.4,30.11,SSE,162,7.4,12.7,88,0.00,OVC,,0.00,89.1,WeatherDisplay:10.37,2013-03-29 13:40:00,
2013-03-29 08:45:00,60.2,56.3,30.12,SSE,160,7.5,11.5,87,0.00,OVC,,0.00,68.2,WeatherDisplay:10.37,2013-03-29 13:45:00,
2013-03-29 08:50:00,60.3,56.4,30.11,SSE,165,9.8,12.7,87,0.00,OVC,,0.00,94.6,WeatherDisplay:10.37,2013-03-29 13:50:00,
2013-03-29 08:55:00,60.5,56.6,30.11,SSE,163,8.9,12.7,87,0.00,OVC,,0.00,122.1,WeatherDisplay:10.37,2013-03-29 13:55:00,
2013-03-29 09:00:00,60.8,56.6,30.11,South,187,8.6,11.5,86,0.00,OVC,,0.00,135.3,WeatherDisplay:10.37,2013-03-29 14:00:00,
2013-03-29 09:05:00,61.1,56.9,30.11,South,179,11.2,13.0,86,0.00,OVC,,0.00,156.2,WeatherDisplay:10.37,2013-03-29 14:05:00,
2013-03-29 09:10:00,61.3,57.1,30.11,South,178,8.8,12.7,86,0.00,OVC,,0.00,170.5,WeatherDisplay:10.37,2013-03-29 14:10:00,
2013-03-29 09:15:00,61.6,57.0,30.11,South,185,13.6,17.3,85,0.00,OVC,,0.00,170.5,WeatherDisplay:10.37,2013-03-29 14:15:00,
2013-03-29 09:20:00,61.7,57.1,30.11,South,181,11.0,16.0,85,0.00,OVC,,0.00,176.0,WeatherDisplay:10.37,2013-03-29 14:20:00,
2013-03-29 09:25:00,62.0,57.1,30.11,SSW,193,15.5,19.6,84,0.00,OVC,,0.00,183.7,WeatherDisplay:10.37,2013-03-29 14:25:00,
2013-03-29 09:30:00,62.2,57.3,30.11,South,185,17.1,21.9,84,0.00,OVC,,0.00,275.0,WeatherDisplay:10.37,2013-03-29 14:30:00,
2013-03-29 09:35:00,62.6,57.4,30.10,South,179,15.9,24.2,83,0.00,OVC,,0.00,242.0,WeatherDisplay:10.37,2013-03-29 14:35:00,
2013-03-29 09:40:00,62.7,57.5,30.10,South,183,15.0,20.7,83,0.00,OVC,,0.00,242.0,WeatherDisplay:10.37,2013-03-29 14:40:00,
2013-03-29 09:45:00,63.4,57.8,30.10,South,170,13.2,16.1,82,0.00,OVC,,0.00,418.0,WeatherDisplay:10.37,2013-03-29 14:45:00,
2013-03-29 09:50:00,63.8,58.2,30.10,SSW,193,13.6,19.6,82,0.00,OVC,,0.00,354.2,WeatherDisplay:10.37,2013-03-29 14:50:00,
2013-03-29 09:55:00,64.5,58.2,30.10,South,180,15.0,17.3,80,0.00,OVC,,0.00,454.3,WeatherDisplay:10.37,2013-03-29 14:55:00,
2013-03-29 10:00:00,64.3,57.6,30.09,South,180,18.8,21.9,79,0.00,OVC,,0.00,222.2,WeatherDisplay:10.37,2013-03-29 15:00:00,
2013-03-29 10:05:00,64.4,58.4,30.09,South,178,13.4,18.4,81,0.00,OVC,,0.00,500.5,WeatherDisplay:10.37,2013-03-29 15:05:00,
2013-03-29 10:10:00,65.3,58.6,30.09,South,191,14.7,19.6,79,0.00,OVC,,0.00,525.8,WeatherDisplay:10.37,2013-03-29 15:10:00,
2013-03-29 10:15:00,65.9,58.8,30.09,South,188,11.3,18.4,78,0.00,BKN,,0.00,539.0,WeatherDisplay:10.37,2013-03-29 15:15:00,
2013-03-29 10:20:00,66.5,58.7,30.08,South,174,14.9,19.6,76,0.00,BKN,,0.00,578.6,WeatherDisplay:10.37,2013-03-29 15:20:00,
2013-03-29 10:25:00,66.4,59.0,30.08,SSW,197,13.1,19.6,77,0.00,BKN,,0.00,554.4,WeatherDisplay:10.37,2013-03-29 15:25:00,
2013-03-29 10:30:00,66.4,58.2,30.08,South,170,16.2,24.2,75,0.00,SCT,,0.00,444.4,WeatherDisplay:10.37,2013-03-29 15:30:00,
2013-03-29 10:35:00,66.3,58.9,30.08,South,191,17.9,23.0,77,0.00,SCT,,0.00,628.1,WeatherDisplay:10.37,2013-03-29 15:35:00,
2013-03-29 10:40:00,66.7,58.9,30.08,South,178,21.1,24.2,76,0.00,SCT,,0.00,717.2,WeatherDisplay:10.37,2013-03-29 15:40:00,
2013-03-29 10:45:00,67.0,58.8,30.09,South,177,18.2,19.6,75,0.00,SCT,,0.00,564.3,WeatherDisplay:10.37,2013-03-29 15:45:00,
2013-03-29 10:50:00,67.9,59.7,30.09,SW,226,15.8,19.6,75,0.00,SCT,,0.00,842.6,WeatherDisplay:10.37,2013-03-29 15:50:00,
2013-03-29 10:55:00,66.9,59.1,30.09,SSW,195,13.3,18.4,76,0.00,SCT,,0.00,482.9,WeatherDisplay:10.37,2013-03-29 15:55:00,
2013-03-29 11:00:00,66.8,58.6,30.09,South,189,16.2,19.6,75,0.00,SCT,,0.00,276.1,WeatherDisplay:10.37,2013-03-29 16:00:00,
2013-03-29 11:05:00,66.1,58.7,30.09,South,186,11.0,12.7,77,0.00,SCT,,0.00,216.7,WeatherDisplay:10.37,2013-03-29 16:05:00,
2013-03-29 11:10:00,65.5,57.7,30.09,SSW,210,16.3,19.6,76,0.00,SCT,,0.00,305.8,WeatherDisplay:10.37,2013-03-29 16:10:00,
2013-03-29 11:15:00,65.9,58.5,30.10,South,191,14.5,24.0,77,0.00,SCT,,0.00,392.7,WeatherDisplay:10.37,2013-03-29 16:15:00,
2013-03-29 11:20:00,66.4,58.6,30.09,South,170,15.3,21.9,76,0.00,SCT,,0.00,387.2,WeatherDisplay:10.37,2013-03-29 16:20:00,
2013-03-29 11:25:00,66.1,58.7,30.10,South,179,16.2,20.7,77,0.00,SCT,,0.00,438.9,WeatherDisplay:10.37,2013-03-29 16:25:00,
2013-03-29 11:30:00,66.5,59.1,30.09,SSW,199,14.0,19.6,77,0.00,BKN,,0.00,415.8,WeatherDisplay:10.37,2013-03-29 16:30:00,
2013-03-29 11:35:00,67.2,58.6,30.09,South,191,17.8,23.0,74,0.00,BKN,,0.00,620.4,WeatherDisplay:10.37,2013-03-29 16:35:00,
2013-03-29 11:40:00,68.0,59.8,30.10,South,180,13.0,16.1,75,0.00,BKN,,0.00,810.7,WeatherDisplay:10.37,2013-03-29 16:40:00,
2013-03-29 11:45:00,67.8,59.2,30.10,SW,216,12.3,16.1,74,0.00,OVC,,0.00,578.6,WeatherDisplay:10.37,2013-03-29 16:45:00,
2013-03-29 11:50:00,67.6,58.6,30.10,SSW,194,10.6,15.0,73,0.00,OVC,,0.00,309.1,WeatherDisplay:10.37,2013-03-29 16:50:00,
2013-03-29 11:55:00,67.4,58.8,30.10,SSW,204,11.7,18.4,74,0.00,OVC,,0.00,458.7,WeatherDisplay:10.37,2013-03-29 16:55:00,
2013-03-29 12:00:00,67.5,59.3,30.10,South,185,10.5,13.8,75,0.00,OVC,,0.00,436.7,WeatherDisplay:10.37,2013-03-29 17:00:00,
2013-03-29 12:05:00,68.2,59.6,30.10,SSW,193,9.1,11.5,74,0.00,OVC,,0.00,492.8,WeatherDisplay:10.37,2013-03-29 17:05:00,
2013-03-29 12:10:00,70.3,60.4,30.09,South,186,15.1,19.6,71,0.00,OVC,,0.00,985.6,WeatherDisplay:10.37,2013-03-29 17:10:00,
2013-03-29 12:15:00,70.3,60.4,30.09,SSE,168,11.7,13.8,71,0.00,OVC,,0.00,617.1,WeatherDisplay:10.37,2013-03-29 17:15:00,
2013-03-29 12:20:00,69.6,59.4,30.09,SW,222,15.0,19.6,70,0.00,OVC,,0.00,543.4,WeatherDisplay:10.37,2013-03-29 17:20:00,
2013-03-29 12:25:00,70.1,60.3,30.09,SSW,200,13.5,19.6,71,0.00,OVC,,0.00,523.6,WeatherDisplay:10.37,2013-03-29 17:25:00,
2013-03-29 12:30:00,69.4,59.2,30.09,SSW,210,15.3,19.6,70,0.00,BKN,,0.00,500.5,WeatherDisplay:10.37,2013-03-29 17:30:00,
2013-03-29 12:35:00,69.4,59.6,30.09,South,174,12.5,17.3,71,0.00,BKN,,0.00,477.4,WeatherDisplay:10.37,2013-03-29 17:35:00,
2013-03-29 12:40:00,68.9,59.5,30.09,South,184,12.7,17.3,72,0.00,BKN,,0.00,405.9,WeatherDisplay:10.37,2013-03-29 17:40:00,
2013-03-29 12:45:00,68.2,58.8,30.09,South,184,14.0,18.4,72,0.00,OVC,,0.00,306.9,WeatherDisplay:10.37,2013-03-29 17:45:00,
2013-03-29 12:50:00,67.8,58.4,30.08,South,187,17.4,20.7,72,0.00,OVC,,0.00,326.7,WeatherDisplay:10.37,2013-03-29 17:50:00,
2013-03-29 12:55:00,67.8,58.8,30.08,SSW,195,15.5,18.4,73,0.00,OVC,,0.00,306.9,WeatherDisplay:10.37,2013-03-29 17:55:00,
2013-03-29 13:00:00,68.1,59.1,30.08,SSW,193,7.4,11.5,73,0.00,OVC,,0.00,332.2,WeatherDisplay:10.37,2013-03-29 18:00:00,
2013-03-29 13:05:00,67.9,58.5,30.08,SSW,204,11.6,15.0,72,0.00,OVC,,0.00,243.1,WeatherDisplay:10.37,2013-03-29 18:05:00,
2013-03-29 13:10:00,67.5,58.5,30.08,South,181,12.2,16.1,73,0.00,OVC,,0.00,253.0,WeatherDisplay:10.37,2013-03-29 18:10:00,
2013-03-29 13:15:00,67.4,58.8,30.08,SSW,200,12.4,15.0,74,0.00,OVC,,0.00,262.9,WeatherDisplay:10.37,2013-03-29 18:15:00,
2013-03-29 13:20:00,67.4,58.4,30.08,South,187,12.9,15.0,73,0.00,OVC,,0.00,257.4,WeatherDisplay:10.37,2013-03-29 18:20:00,
2013-03-29 13:25:00,67.0,58.1,30.08,SSW,203,13.5,18.0,73,0.00,OVC,,0.00,227.7,WeatherDisplay:10.37,2013-03-29 18:25:00,
2013-03-29 13:30:00,66.7,58.5,30.08,South,189,12.6,18.0,75,0.00,OVC,,0.00,232.1,WeatherDisplay:10.37,2013-03-29 18:30:00,
2013-03-29 13:35:00,66.6,58.4,30.08,South,174,14.6,17.3,75,0.00,OVC,,0.00,352.0,WeatherDisplay:10.37,2013-03-29 18:35:00,
2013-03-29 13:40:00,67.1,58.5,30.07,SSW,195,13.2,17.3,74,0.00,OVC,,0.00,482.9,WeatherDisplay:10.37,2013-03-29 18:40:00,
2013-03-29 13:45:00,68.1,59.5,30.07,South,175,10.5,11.5,74,0.00,OVC,,0.00,563.2,WeatherDisplay:10.37,2013-03-29 18:45:00,
2013-03-29 13:50:00,69.0,59.2,30.07,SSE,147,8.8,16.1,71,0.00,OVC,,0.00,595.1,WeatherDisplay:10.37,2013-03-29 18:50:00,
2013-03-29 13:55:00,69.6,59.4,30.06,SSE,154,9.9,13.8,70,0.00,OVC,,0.00,507.1,WeatherDisplay:10.37,2013-03-29 18:55:00,
2013-03-29 14:00:00,69.4,59.2,30.06,South,187,9.4,12.7,70,0.00,OVC,,0.00,578.6,WeatherDisplay:10.37,2013-03-29 19:00:00,
2013-03-29 14:05:00,69.5,59.3,30.06,South,174,13.3,15.0,70,0.00,OVC,,0.00,686.4,WeatherDisplay:10.37,2013-03-29 19:05:00,
2013-03-29 14:10:00,69.2,58.6,30.05,SSE,152,9.3,13.8,69,0.00,OVC,,0.00,610.5,WeatherDisplay:10.37,2013-03-29 19:10:00,
2013-03-29 14:15:00,71.0,59.5,30.05,SE,145,13.6,17.3,67,0.00,OVC,,0.00,972.4,WeatherDisplay:10.37,2013-03-29 19:15:00,
2013-03-29 14:20:00,71.1,58.7,30.04,SE,140,8.9,17.3,65,0.00,OVC,,0.00,730.4,WeatherDisplay:10.37,2013-03-29 19:20:00,
2013-03-29 14:25:00,71.8,59.0,30.04,SSE,163,13.0,19.6,64,0.00,OVC,,0.00,946.0,WeatherDisplay:10.37,2013-03-29 19:25:00,
2013-03-29 14:30:00,71.9,59.5,30.04,SSE,162,8.5,16.1,65,0.00,OVC,,0.00,946.0,WeatherDisplay:10.37,2013-03-29 19:30:00,
2013-03-29 14:35:00,71.7,60.2,30.03,SSE,163,8.0,15.0,67,0.00,OVC,,0.00,954.8,WeatherDisplay:10.37,2013-03-29 19:35:00,
2013-03-29 14:40:00,72.7,59.8,30.03,SSE,164,14.5,18.4,64,0.00,OVC,,0.00,920.7,WeatherDisplay:10.37,2013-03-29 19:40:00,
2013-03-29 14:45:00,73.2,59.8,30.03,SSE,154,13.7,19.6,63,0.00,SCT,,0.00,920.7,WeatherDisplay:10.37,2013-03-29 19:45:00,
2013-03-29 14:50:00,73.5,59.2,30.03,SSE,159,11.5,16.1,61,0.00,SCT,,0.00,701.8,WeatherDisplay:10.37,2013-03-29 19:50:00,
2013-03-29 14:55:00,72.6,58.8,30.03,SSE,151,11.9,17.3,62,0.00,SCT,,0.00,858.0,WeatherDisplay:10.37,2013-03-29 19:55:00,
2013-03-29 15:00:00,73.3,59.0,30.02,SSE,156,10.5,15.0,61,0.00,SCT,,0.00,900.9,WeatherDisplay:10.37,2013-03-29 20:00:00,
2013-03-29 15:05:00,73.9,60.1,30.02,SSW,201,15.1,18.4,62,0.00,SCT,,0.00,866.8,WeatherDisplay:10.37,2013-03-29 20:05:00,
2013-03-29 15:10:00,74.4,59.6,30.02,ESE,121,8.7,12.7,60,0.00,SCT,,0.00,833.8,WeatherDisplay:10.37,2013-03-29 20:10:00,
2013-03-29 15:15:00,74.4,59.1,30.01,South,171,13.7,17.3,59,0.00,CLR,,0.00,599.5,WeatherDisplay:10.37,2013-03-29 20:15:00,
2013-03-29 15:20:00,73.7,58.5,30.01,SSW,194,12.1,16.0,59,0.00,CLR,,0.00,426.8,WeatherDisplay:10.37,2013-03-29 20:20:00,
2013-03-29 15:25:00,74.5,59.2,30.01,SSE,162,11.8,16.1,59,0.00,CLR,,0.00,811.8,WeatherDisplay:10.37,2013-03-29 20:25:00,
2013-03-29 15:30:00,74.5,59.2,30.01,SSE,166,10.8,20.7,59,0.00,CLR,,0.00,707.3,WeatherDisplay:10.37,2013-03-29 20:30:00,
2013-03-29 15:35:00,73.6,58.9,30.02,South,181,10.8,18.4,60,0.00,CLR,,0.00,678.7,WeatherDisplay:10.37,2013-03-29 20:35:00,
2013-03-29 15:40:00,74.1,58.9,30.02,South,171,10.2,18.4,59,0.00,CLR,,0.00,316.8,WeatherDisplay:10.37,2013-03-29 20:40:00,
2013-03-29 15:45:00,73.7,58.0,30.02,South,183,9.8,20.7,58,0.00,SCT,,0.00,145.2,WeatherDisplay:10.37,2013-03-29 20:45:00,
2013-03-29 15:50:00,72.8,58.1,30.02,South,185,12.4,16.0,60,0.00,SCT,,0.00,357.5,WeatherDisplay:10.37,2013-03-29 20:50:00,
2013-03-29 15:55:00,75.0,59.2,30.02,SSE,156,9.2,11.5,58,0.00,SCT,,0.00,811.8,WeatherDisplay:10.37,2013-03-29 20:55:00,
2013-03-29 16:00:00,76.3,59.4,30.01,SSE,154,10.5,13.8,56,0.00,SCT,,0.00,740.3,WeatherDisplay:10.37,2013-03-29 21:00:00,
2013-03-29 16:05:00,75.2,58.4,30.02,SSW,192,15.3,20.7,56,0.00,SCT,,0.00,763.4,WeatherDisplay:10.37,2013-03-29 21:05:00,
2013-03-29 16:10:00,74.8,58.5,30.02,South,179,12.3,13.8,57,0.00,SCT,,0.00,301.4,WeatherDisplay:10.37,2013-03-29 21:10:00,
2013-03-29 16:15:00,73.5,56.8,30.02,SSE,149,8.0,11.5,56,0.00,BKN,,0.00,170.5,WeatherDisplay:10.37,2013-03-29 21:15:00,
2013-03-29 16:20:00,73.0,57.3,30.02,SSE,158,9.8,12.0,58,0.00,BKN,,0.00,242.0,WeatherDisplay:10.37,2013-03-29 21:20:00,
2013-03-29 16:25:00,73.5,58.3,30.01,SSE,148,12.6,16.1,59,0.00,BKN,,0.00,415.8,WeatherDisplay:10.37,2013-03-29 21:25:00,
2013-03-29 16:30:00,74.0,58.3,30.01,South,186,12.3,16.1,58,0.00,BKN,,0.00,363.0,WeatherDisplay:10.37,2013-03-29 21:30:00,
2013-03-29 16:35:00,74.4,57.7,30.00,SSE,156,10.8,18.4,56,0.00,BKN,,0.00,220.0,WeatherDisplay:10.37,2013-03-29 21:35:00,
2013-03-29 16:40:00,73.2,57.5,30.00,SE,124,8.1,15.0,58,0.00,BKN,,0.00,189.2,WeatherDisplay:10.37,2013-03-29 21:40:00,
2013-03-29 16:45:00,72.5,57.8,30.00,South,181,10.2,15.0,60,0.00,BKN,,0.00,259.6,WeatherDisplay:10.37,2013-03-29 21:45:00,
2013-03-29 16:50:00,72.6,57.4,30.01,SSE,168,6.2,11.5,59,0.00,BKN,,0.00,227.7,WeatherDisplay:10.37,2013-03-29 21:50:00,
2013-03-29 16:55:00,72.4,57.7,30.00,SSE,153,8.7,11.5,60,0.00,BKN,,0.00,183.7,WeatherDisplay:10.37,2013-03-29 21:55:00,
2013-03-29 17:00:00,72.3,57.6,30.00,SSE,147,10.7,12.7,60,0.00,BKN,,0.00,143.0,WeatherDisplay:10.37,2013-03-29 22:00:00,
2013-03-29 17:05:00,71.9,57.3,30.00,SSE,168,9.3,15.0,60,0.00,BKN,,0.00,132.0,WeatherDisplay:10.37,2013-03-29 22:05:00,
2013-03-29 17:10:00,71.4,57.7,30.01,SSW,193,7.3,9.2,62,0.00,BKN,,0.00,132.0,WeatherDisplay:10.37,2013-03-29 22:10:00,
2013-03-29 17:15:00,71.7,57.5,30.01,SSE,151,10.3,11.5,61,0.00,SCT,,0.00,129.8,WeatherDisplay:10.37,2013-03-29 22:15:00,
2013-03-29 17:20:00,71.6,57.4,30.00,SSE,166,10.5,11.5,61,0.00,SCT,,0.00,152.9,WeatherDisplay:10.37,2013-03-29 22:20:00,
2013-03-29 17:25:00,71.6,57.9,30.00,SSE,156,11.7,15.0,62,0.00,SCT,,0.00,191.4,WeatherDisplay:10.37,2013-03-29 22:25:00,
2013-03-29 17:30:00,71.9,58.2,30.00,SSE,155,8.6,12.7,62,0.00,CLR,,0.00,170.5,WeatherDisplay:10.37,2013-03-29 22:30:00,
2013-03-29 17:35:00,72.1,57.9,30.00,SSE,151,8.0,11.5,61,0.00,CLR,,0.00,171.6,WeatherDisplay:10.37,2013-03-29 22:35:00,
2013-03-29 17:40:00,72.4,57.7,30.00,SSE,154,12.7,16.0,60,0.00,CLR,,0.00,191.4,WeatherDisplay:10.37,2013-03-29 22:40:00,
2013-03-29 17:45:00,72.2,57.5,29.99,SSE,156,10.2,15.0,60,0.00,BKN,,0.00,143.0,WeatherDisplay:10.37,2013-03-29 22:45:00,
2013-03-29 17:50:00,72.0,57.8,29.99,SSE,149,10.1,15.0,61,0.00,BKN,,0.00,112.2,WeatherDisplay:10.37,2013-03-29 22:50:00,
2013-03-29 17:55:00,71.8,57.6,29.99,SSE,159,10.8,14.0,61,0.00,BKN,,0.00,114.4,WeatherDisplay:10.37,2013-03-29 22:55:00,
2013-03-29 18:00:00,71.8,58.1,29.99,South,179,10.9,13.8,62,0.00,BKN,,0.00,152.9,WeatherDisplay:10.37,2013-03-29 23:00:00,
2013-03-29 18:05:00,71.9,57.7,29.99,SSE,162,10.8,16.0,61,0.00,BKN,,0.00,173.8,WeatherDisplay:10.37,2013-03-29 23:05:00,
2013-03-29 18:10:00,72.0,57.8,29.99,SSE,164,11.1,15.0,61,0.00,BKN,,0.00,168.3,WeatherDisplay:10.37,2013-03-29 23:10:00,
2013-03-29 18:15:00,72.0,57.8,29.99,South,170,11.1,11.5,61,0.00,SCT,,0.00,137.5,WeatherDisplay:10.37,2013-03-29 23:15:00,
2013-03-29 18:20:00,71.8,57.6,29.99,SSE,152,11.0,13.0,61,0.00,SCT,,0.00,114.4,WeatherDisplay:10.37,2013-03-29 23:20:00,
2013-03-29 18:25:00,71.7,57.5,29.99,South,170,11.1,12.7,61,0.00,SCT,,0.00,81.4,WeatherDisplay:10.37,2013-03-29 23:25:00,
2013-03-29 18:30:00,71.4,57.2,29.99,SSE,156,6.5,12.7,61,0.00,CLR,,0.00,56.1,WeatherDisplay:10.37,2013-03-29 23:30:00,
2013-03-29 18:35:00,71.3,57.2,29.99,South,171,7.9,13.8,61,0.00,CLR,,0.00,66.0,WeatherDisplay:10.37,2013-03-29 23:35:00,
2013-03-29 18:40:00,71.1,57.4,30.00,SSE,168,8.2,11.5,62,0.00,CLR,,0.00,51.7,WeatherDisplay:10.37,2013-03-29 23:40:00,
2013-03-29 18:45:00,70.8,57.1,29.99,SSE,147,8.9,11.5,62,0.00,CLR,,0.00,36.3,WeatherDisplay:10.37,2013-03-29 23:45:00,
2013-03-29 18:50:00,70.8,57.1,29.99,SSE,165,8.8,11.5,62,0.00,CLR,,0.00,36.3,WeatherDisplay:10.37,2013-03-29 23:50:00,
2013-03-29 18:55:00,70.7,57.0,30.00,SSE,164,6.2,15.0,62,0.00,CLR,,0.00,36.3,WeatherDisplay:10.37,2013-03-29 23:55:00,
2013-03-29 19:00:00,70.4,56.8,30.00,South,174,6.4,8.1,62,0.00,CLR,,0.00,23.1,WeatherDisplay:10.37,2013-03-30 00:00:00,
2013-03-29 19:05:00,70.0,56.8,30.01,South,181,7.4,11.5,63,0.00,CLR,,0.00,12.1,WeatherDisplay:10.37,2013-03-30 00:05:00,
2013-03-29 19:10:00,69.7,57.0,30.01,South,175,7.3,9.0,64,0.00,CLR,,0.00,12.1,WeatherDisplay:10.37,2013-03-30 00:10:00,
2013-03-29 19:15:00,69.6,56.9,30.01,South,181,5.3,6.9,64,0.00,CLR,,0.00,13.2,WeatherDisplay:10.37,2013-03-30 00:15:00,
2013-03-29 19:20:00,69.2,56.9,30.01,South,181,5.6,8.1,65,0.00,CLR,,0.00,9.9,WeatherDisplay:10.37,2013-03-30 00:20:00,
2013-03-29 19:25:00,69.2,56.9,30.00,South,179,7.0,9.2,65,0.00,CLR,,0.00,5.5,WeatherDisplay:10.37,2013-03-30 00:25:00,
2013-03-29 19:30:00,69.4,57.1,30.00,South,172,7.7,11.5,65,0.00,CLR,,0.00,5.5,WeatherDisplay:10.37,2013-03-30 00:30:00,
2013-03-29 19:35:00,69.5,56.8,30.00,SSW,200,11.2,12.7,64,0.00,BKN,,0.00,0.0,WeatherDisplay:10.37,2013-03-30 00:35:00,
2013-03-29 19:40:00,69.4,56.7,30.00,South,183,12.6,13.8,64,0.00,BKN,,0.00,0.0,WeatherDisplay:10.37,2013-03-30 00:40:00,
2013-03-29 19:45:00,69.6,56.9,30.00,SSW,201,11.0,12.7,64,0.00,BKN,,0.00,0.0,WeatherDisplay:10.37,2013-03-30 00:45:00,
2013-03-29 19:50:00,69.7,56.5,30.00,South,188,11.5,17.3,63,0.00,OVC,,0.00,0.0,WeatherDisplay:10.37,2013-03-30 00:50:00,
2013-03-29 19:55:00,69.7,56.5,30.00,South,170,11.5,16.1,63,0.00,OVC,,0.00,0.0,WeatherDisplay:10.37,2013-03-30 00:55:00,
2013-03-29 20:00:00,69.7,56.5,29.99,SSW,192,15.3,20.0,63,0.00,OVC,,0.00,0.0,WeatherDisplay:10.37,2013-03-30 01:00:00,
2013-03-29 20:05:00,69.6,56.9,30.00,South,186,13.2,23.0,64,0.00,OVC,,0.00,0.0,WeatherDisplay:10.37,2013-03-30 01:05:00,
2013-03-29 20:10:00,69.6,56.9,30.00,South,187,12.7,15.0,64,0.00,OVC,,0.00,0.0,WeatherDisplay:10.37,2013-03-30 01:10:00,
2013-03-29 20:15:00,69.4,56.7,30.00,South,177,11.3,18.4,64,0.00,OVC,,0.00,0.0,WeatherDisplay:10.37,2013-03-30 01:15:00,
2013-03-29 20:20:00,69.1,56.8,30.00,SSE,158,10.2,12.0,65,0.00,SCT,,0.00,0.0,WeatherDisplay:10.37,2013-03-30 01:20:00,
2013-03-29 20:25:00,68.8,57.0,30.00,South,186,11.5,17.3,66,0.00,SCT,,0.00,0.0,WeatherDisplay:10.37,2013-03-30 01:25:00,
2013-03-29 20:30:00,68.5,57.1,30.00,SSE,161,9.4,11.5,67,0.00,SCT,,0.00,0.0,WeatherDisplay:10.37,2013-03-30 01:30:00,
2013-03-29 20:35:00,68.1,57.1,30.00,South,176,10.3,12.0,68,0.00,SCT,,0.00,0.0,WeatherDisplay:10.37,2013-03-30 01:35:00,
2013-03-29 20:40:00,67.9,56.9,30.00,SSE,168,9.0,11.5,68,0.00,SCT,,0.00,0.0,WeatherDisplay:10.37,2013-03-30 01:40:00,
2013-03-29 20:45:00,67.7,57.2,30.00,SSE,161,10.4,11.5,69,0.00,SCT,,0.00,0.0,WeatherDisplay:10.37,2013-03-30 01:45:00,
2013-03-29 20:50:00,67.5,57.0,30.00,South,170,10.8,12.0,69,0.00,-RA,,0.00,0.0,WeatherDisplay:10.37,2013-03-30 01:50:00,
2013-03-29 20:55:00,67.6,57.1,30.00,SSE,166,12.1,12.7,69,0.00,-RA,,0.00,0.0,WeatherDisplay:10.37,2013-03-30 01:55:00,
2013-03-29 21:00:00,67.5,57.0,30.00,SSE,154,8.4,12.7,69,0.00,-RA,,0.00,0.0,WeatherDisplay:10.37,2013-03-30 02:00:00,
2013-03-29 21:05:00,67.4,57.3,30.01,SE,145,5.0,8.1,70,0.00,-RA,,0.00,0.0,WeatherDisplay:10.37,2013-03-30 02:05:00,
2013-03-29 21:10:00,67.1,57.4,30.01,South,174,9.4,10.4,71,0.00,-RA,,0.00,0.0,WeatherDisplay:10.37,2013-03-30 02:10:00,
2013-03-29 21:15:00,67.1,57.4,30.01,South,172,9.1,11.5,71,0.00,-RA,,0.00,0.0,WeatherDisplay:10.37,2013-03-30 02:15:00,
2013-03-29 21:20:00,67.0,57.7,30.02,South,177,9.9,13.0,72,0.00,OVC,,0.00,0.0,WeatherDisplay:10.37,2013-03-30 02:20:00,
2013-03-29 21:25:00,66.7,57.4,30.02,South,170,8.7,11.5,72,0.00,OVC,,0.00,0.0,WeatherDisplay:10.37,2013-03-30 02:25:00,
2013-03-29 21:30:00,66.4,57.9,30.02,SSE,152,9.0,12.7,74,0.00,OVC,,0.00,0.0,WeatherDisplay:10.37,2013-03-30 02:30:00,
2013-03-29 21:35:00,66.3,57.8,30.03,SE,137,4.6,11.5,74,0.00,-RA,,0.00,0.0,WeatherDisplay:10.37,2013-03-30 02:35:00,
2013-03-29 21:40:00,66.2,57.7,30.03,SSE,154,2.6,4.6,74,0.00,-RA,,0.00,0.0,WeatherDisplay:10.37,2013-03-30 02:40:00,
2013-03-29 21:45:00,65.8,57.7,30.03,SSE,154,0.0,4.6,75,0.00,-RA,,0.00,0.0,WeatherDisplay:10.37,2013-03-30 02:45:00,
2013-03-29 21:50:00,65.5,58.1,30.04,SSE,154,0.1,4.6,77,0.00,-RA,,0.00,0.0,WeatherDisplay:10.37,2013-03-30 02:50:00,
2013-03-29 21:55:00,65.2,57.8,30.03,SSE,154,1.3,4.6,77,0.00,-RA,,0.00,0.0,WeatherDisplay:10.37,2013-03-30 02:55:00,
2013-03-29 22:00:00,65.4,58.0,30.03,SE,130,5.5,6.9,77,0.00,-RA,,0.00,0.0,WeatherDisplay:10.37,2013-03-30 03:00:00,
2013-03-29 22:05:00,65.3,57.9,30.03,ESE,115,4.4,4.6,77,0.00,OVC,,0.00,0.0,WeatherDisplay:10.37,2013-03-30 03:05:00,
2013-03-29 22:10:00,64.9,58.2,30.03,SSE,154,6.2,8.1,79,0.00,OVC,,0.00,0.0,WeatherDisplay:10.37,2013-03-30 03:10:00,
2013-03-29 22:15:00,64.8,58.1,30.03,SSE,154,11.6,15.0,79,0.00,OVC,,0.00,0.0,WeatherDisplay:10.37,2013-03-30 03:15:00,
2013-03-29 22:20:00,65.1,58.4,30.02,ESE,122,7.5,9.2,79,0.00,OVC,,0.00,0.0,WeatherDisplay:10.37,2013-03-30 03:20:00,
2013-03-29 22:25:00,64.5,58.5,30.02,SE,139,5.3,6.0,81,0.00,OVC,,0.00,0.0,WeatherDisplay:10.37,2013-03-30 03:25:00,
2013-03-29 22:30:00,64.1,58.5,30.02,SE,144,7.2,10.0,82,0.00,OVC,,0.00,0.0,WeatherDisplay:10.37,2013-03-30 03:30:00,
2013-03-29 22:35:00,64.0,58.4,30.02,SSE,150,7.4,10.4,82,0.01,-RA,,0.01,0.0,WeatherDisplay:10.37,2013-03-30 03:35:00,
2013-03-29 22:40:00,63.9,58.3,30.02,SE,146,7.6,11.5,82,0.01,-RA,,0.01,0.0,WeatherDisplay:10.37,2013-03-30 03:40:00,
2013-03-29 22:45:00,63.7,58.4,30.02,SSE,151,6.7,8.1,83,0.01,-RA,,0.01,0.0,WeatherDisplay:10.37,2013-03-30 03:45:00,
2013-03-29 22:50:00,63.4,58.1,30.02,SSE,168,8.2,10.4,83,0.01,-RA,,0.01,0.0,WeatherDisplay:10.37,2013-03-30 03:50:00,
2013-03-29 22:55:00,63.3,58.4,30.02,South,170,8.7,10.4,84,0.01,-RA,,0.01,0.0,WeatherDisplay:10.37,2013-03-30 03:55:00,
2013-03-29 23:00:00,63.4,58.5,30.02,South,172,12.0,15.0,84,0.01,-RA,,0.02,0.0,WeatherDisplay:10.37,2013-03-30 04:00:00,
2013-03-29 23:05:00,63.4,58.1,30.01,SSE,166,10.5,15.0,83,0.02,-RA,,0.02,0.0,WeatherDisplay:10.37,2013-03-30 04:05:00,
2013-03-29 23:10:00,63.2,58.3,30.01,South,170,10.4,13.8,84,0.02,-RA,,0.02,0.0,WeatherDisplay:10.37,2013-03-30 04:10:00,
2013-03-29 23:15:00,62.8,58.2,30.01,South,179,10.2,12.7,85,0.02,-RA,,0.02,0.0,WeatherDisplay:10.37,2013-03-30 04:15:00,
2013-03-29 23:20:00,62.5,57.9,30.00,South,183,11.8,13.8,85,0.02,-RA,,0.02,0.0,WeatherDisplay:10.37,2013-03-30 04:20:00,
2013-03-29 23:25:00,62.4,57.8,30.00,South,175,13.4,19.6,85,0.02,-RA,,0.02,0.0,WeatherDisplay:10.37,2013-03-30 04:25:00,
2013-03-29 23:30:00,62.2,58.0,30.00,South,179,13.7,18.4,86,0.02,-RA,,0.02,0.0,WeatherDisplay:10.37,2013-03-30 04:30:00,
2013-03-29 23:35:00,62.3,58.1,29.99,South,176,12.9,17.3,86,0.02,-RA,,0.03,0.0,WeatherDisplay:10.37,2013-03-30 04:35:00,
2013-03-29 23:40:00,62.3,58.1,29.99,South,184,15.2,19.6,86,0.02,-RA,,0.03,0.0,WeatherDisplay:10.37,2013-03-30 04:40:00,
2013-03-29 23:45:00,62.6,58.4,29.99,South,175,17.9,23.0,86,0.02,-RA,,0.03,0.0,WeatherDisplay:10.37,2013-03-30 04:45:00,
2013-03-29 23:50:00,62.4,58.2,30.00,SSW,199,18.7,24.2,86,0.03,-RA,,0.04,0.0,WeatherDisplay:10.37,2013-03-30 04:50:00,
2013-03-29 23:55:00,62.2,58.3,30.00,SSW,197,19.9,25.3,87,0.03,-RA,,0.04,0.0,WeatherDisplay:10.37,2013-03-30 04:55:00,